Time;durP1;ratioP1;P1;durP2;ratioP2;P2;SDS_P1;SDS_P2;PMS_P1;PMS_P2;Temp;Humidity;BMP_temperature;BMP_pressure;BME280_temperature;BME280_humidity;BME280_pressure;Samples;Min_cycle;Max_cycle;Signal;HPM_P1;HPM_P2
2023/05/10 00:02:22;;;;;;;0.30;0.30;;;;;;;;;;5092059;28;20064;-75
2023/05/10 00:04:48;;;;;;;0.17;0.17;;;;;;;;;;5091905;28;20479;-75
2023/05/10 00:07:13;;;;;;;0.20;0.20;;;;;;;;;;5091011;28;20039;-76
2023/05/10 00:09:39;;;;;;;0.20;0.20;;;;;;;;;;5092181;28;20122;-76
2023/05/10 00:12:05;;;;;;;0.20;0.20;;;;;;;;;;5090838;28;20036;-78
2023/05/10 00:14:30;;;;;;;0.20;0.20;;;;;;;;;;5091896;28;20043;-78
2023/05/10 00:16:56;;;;;;;0.28;0.28;;;;;;;;;;5057018;28;20036;-78
2023/05/10 00:19:21;;;;;;;0.25;0.25;;;;;;;;;;5091689;28;20044;-91
2023/05/10 00:21:47;;;;;;;0.43;0.43;;;;;;;;;;5092552;28;20088;-88
2023/05/10 00:24:12;;;;;;;0.32;0.25;;;;;;;;;;5090813;28;20036;-90
2023/05/10 00:26:37;;;;;;;0.20;0.20;;;;;;;;;;5091394;28;20097;-89
2023/05/10 00:29:03;;;;;;;0.20;0.20;;;;;;;;;;5073898;28;20040;-86
2023/05/10 00:31:29;;;;;;;0.20;0.20;;;;;;;;;;5075980;28;20031;-78
2023/05/10 00:33:56;;;;;;;0.20;0.20;;;;;;;;;;5094877;28;20036;-78
2023/05/10 00:36:22;;;;;;;0.20;0.20;;;;;;;;;;5077354;28;20020;-79
2023/05/10 00:38:48;;;;;;;0.22;0.22;;;;;;;;;;5077572;28;20043;-79
2023/05/10 00:41:13;;;;;;;0.20;0.20;;;;;;;;;;5095654;28;20035;-76
2023/05/10 00:43:39;;;;;;;0.10;0.10;;;;;;;;;;5077498;28;20035;-76
2023/05/10 00:46:05;;;;;;;0.20;0.20;;;;;;;;;;5060796;28;20050;-76
2023/05/10 00:48:31;;;;;;;0.20;0.20;;;;;;;;;;5095176;28;20036;-78
2023/05/10 00:50:57;;;;;;;0.45;0.45;;;;;;;;;;5076531;28;20496;-83
2023/05/10 00:53:23;;;;;;;0.20;0.20;;;;;;;;;;5094992;28;20032;-77
2023/05/10 00:55:48;;;;;;;0.20;0.20;;;;;;;;;;5094788;28;20074;-76
2023/05/10 00:58:14;;;;;;;0.20;0.20;;;;;;;;;;5094966;28;20055;-75
2023/05/10 01:00:41;;;;;;;0.22;0.22;;;;;;;;;;5077040;28;20487;-75
2023/05/10 01:03:06;;;;;;;0.20;0.20;;;;;;;;;;5093840;28;20024;-76
2023/05/10 01:05:32;;;;;;;0.20;0.20;;;;;;;;;;5095316;28;20135;-75
2023/05/10 01:07:57;;;;;;;0.20;0.20;;;;;;;;;;5077076;28;20035;-76
2023/05/10 01:10:22;;;;;;;0.20;0.20;;;;;;;;;;5095320;28;20395;-76
2023/05/10 01:12:48;;;;;;;0.55;0.55;;;;;;;;;;5094871;28;20063;-79
2023/05/10 01:15:15;;;;;;;0.30;0.30;;;;;;;;;;5094745;28;20507;-80
2023/05/10 01:17:42;;;;;;;0.20;0.20;;;;;;;;;;5075743;28;20036;-77
2023/05/10 01:20:09;;;;;;;0.20;0.20;;;;;;;;;;5076732;28;20032;-79
2023/05/10 01:22:55;;;;;;;0.20;0.20;;;;;;;;;;5077104;28;20032;-79
2023/05/10 01:25:49;;;;;;;0.30;0.30;;;;;;;;;;5095173;28;20040;-79
2023/05/10 01:28:37;;;;;;;0.30;0.30;;;;;;;;;;5077733;28;20491;-80
2023/05/10 01:31:06;;;;;;;0.20;0.20;;;;;;;;;;5078255;28;20039;-81
2023/05/10 01:33:49;;;;;;;0.20;0.20;;;;;;;;;;5076661;28;20024;-81
2023/05/10 01:36:15;;;;;;;0.20;0.20;;;;;;;;;;5093911;28;20032;-80
2023/05/10 01:38:47;;;;;;;0.30;0.30;;;;;;;;;;5075979;28;20025;-78
2023/05/10 01:41:24;;;;;;;0.20;0.20;;;;;;;;;;5094529;28;20110;-79
2023/05/10 01:43:50;;;;;;;0.20;0.20;;;;;;;;;;5076861;28;20445;-79
2023/05/10 01:46:21;;;;;;;0.20;0.20;;;;;;;;;;5093416;28;20039;-77
2023/05/10 01:48:48;;;;;;;0.77;0.77;;;;;;;;;;5076627;28;20028;-75
2023/05/10 01:51:18;;;;;;;0.20;0.20;;;;;;;;;;5094202;28;20035;-79
2023/05/10 01:53:46;;;;;;;0.20;0.20;;;;;;;;;;5075927;28;20061;-77
2023/05/10 01:56:11;;;;;;;0.20;0.20;;;;;;;;;;5093827;28;20028;-80
2023/05/10 01:58:38;;;;;;;0.20;0.20;;;;;;;;;;5076078;28;20076;-82
2023/05/10 02:01:04;;;;;;;0.20;0.20;;;;;;;;;;5076124;28;20028;-82
2023/05/10 02:03:30;;;;;;;0.20;0.20;;;;;;;;;;5093601;28;20035;-82
2023/05/10 02:05:57;;;;;;;0.30;0.30;;;;;;;;;;5076063;28;20123;-82
2023/05/10 02:08:23;;;;;;;0.20;0.20;;;;;;;;;;5076173;28;20127;-81
2023/05/10 02:10:50;;;;;;;0.20;0.20;;;;;;;;;;5093542;28;20103;-76
2023/05/10 02:13:16;;;;;;;0.20;0.20;;;;;;;;;;5076104;28;20044;-77
2023/05/10 02:15:42;;;;;;;0.20;0.20;;;;;;;;;;5076304;28;20035;-75
2023/05/10 02:18:09;;;;;;;0.20;0.20;;;;;;;;;;5094379;28;20115;-78
2023/05/10 02:20:34;;;;;;;0.20;0.20;;;;;;;;;;5074944;28;20036;-75
2023/05/10 02:23:00;;;;;;;0.20;0.20;;;;;;;;;;5075863;28;20039;-76
2023/05/10 02:25:26;;;;;;;0.20;0.20;;;;;;;;;;5094246;28;20051;-77
2023/05/10 02:27:54;;;;;;;0.25;0.25;;;;;;;;;;5093995;28;20047;-77
2023/05/10 02:30:20;;;;;;;0.20;0.20;;;;;;;;;;5093199;28;20027;-77
2023/05/10 02:32:46;;;;;;;0.20;0.20;;;;;;;;;;5075046;28;20040;-79
2023/05/10 02:35:12;;;;;;;0.20;0.20;;;;;;;;;;5075427;28;20468;-83
2023/05/10 02:37:38;;;;;;;0.30;0.30;;;;;;;;;;5075887;28;20089;-76
2023/05/10 02:40:05;;;;;;;0.17;0.17;;;;;;;;;;5075606;28;20032;-77
2023/05/10 02:42:32;;;;;;;0.22;0.22;;;;;;;;;;5075729;28;20123;-76
2023/05/10 02:45:00;;;;;;;0.30;0.30;;;;;;;;;;5074537;28;20024;-77
2023/05/10 02:47:26;;;;;;;0.20;0.20;;;;;;;;;;5092044;28;20040;-77
2023/05/10 02:49:51;;;;;;;0.20;0.20;;;;;;;;;;5092359;28;20032;-78
2023/05/10 02:52:21;;;;;;;3.55;3.35;;;;;;;;;;5074994;28;20050;-79
2023/05/10 02:54:49;;;;;;;0.20;0.20;;;;;;;;;;5074899;28;20032;-79
2023/05/10 02:57:22;;;;;;;0.20;0.20;;;;;;;;;;5075240;28;20479;-79
2023/05/10 02:59:47;;;;;;;0.13;0.13;;;;;;;;;;5075151;28;20028;-79
2023/05/10 03:02:13;;;;;;;0.20;0.20;;;;;;;;;;5088914;28;20043;-80
2023/05/10 03:04:38;;;;;;;0.20;0.20;;;;;;;;;;5071451;28;20506;-78
2023/05/10 03:07:04;;;;;;;0.20;0.20;;;;;;;;;;5054158;28;20036;-79
2023/05/10 03:09:30;;;;;;;0.20;0.20;;;;;;;;;;5071275;28;20109;-80
2023/05/10 03:12:15;;;;;;;0.20;0.20;;;;;;;;;;5071062;28;20035;-80
2023/05/10 03:14:57;;;;;;;0.20;0.20;;;;;;;;;;5069677;28;20107;-78
2023/05/10 03:17:34;;;;;;;0.20;0.20;;;;;;;;;;5070806;28;20051;-83
2023/05/10 03:20:03;;;;;;;0.20;0.20;;;;;;;;;;5069863;28;20113;-77
2023/05/10 03:22:36;;;;;;;0.20;0.20;;;;;;;;;;5071436;28;20084;-77
2023/05/10 03:25:05;;;;;;;0.20;0.20;;;;;;;;;;5089143;28;20115;-77
2023/05/10 03:27:31;;;;;;;0.20;0.20;;;;;;;;;;5071053;28;20046;-78
2023/05/10 03:29:59;;;;;;;0.20;0.20;;;;;;;;;;5088924;28;20035;-76
2023/05/10 03:32:27;;;;;;;0.17;0.17;;;;;;;;;;5070836;28;20082;-78
2023/05/10 03:34:52;;;;;;;0.77;0.77;;;;;;;;;;5088906;28;20479;-78
2023/05/10 03:37:18;;;;;;;0.20;0.20;;;;;;;;;;5070536;28;20028;-76
2023/05/10 03:39:44;;;;;;;0.20;0.20;;;;;;;;;;5069558;28;20387;-76
2023/05/10 03:42:11;;;;;;;0.30;0.30;;;;;;;;;;5069660;28;20024;-79
2023/05/10 03:44:38;;;;;;;0.20;0.20;;;;;;;;;;5070198;28;20036;-79
2023/05/10 03:47:04;;;;;;;0.20;0.20;;;;;;;;;;5088454;28;20483;-78
2023/05/10 03:49:29;;;;;;;0.30;0.30;;;;;;;;;;5070728;28;20032;-79
2023/05/10 03:51:54;;;;;;;0.43;0.43;;;;;;;;;;5088389;28;20494;-79
2023/05/10 03:54:20;;;;;;;0.10;0.10;;;;;;;;;;5080610;28;20513;-77
2023/05/10 03:56:47;;;;;;;0.20;0.20;;;;;;;;;;5083709;28;20027;-77
2023/05/10 03:59:14;;;;;;;0.20;0.20;;;;;;;;;;5062430;28;20032;-85
2023/05/10 04:01:39;;;;;;;0.20;0.20;;;;;;;;;;5063547;28;20098;-80
2023/05/10 04:04:05;;;;;;;0.17;0.17;;;;;;;;;;5087051;28;20388;-78
2023/05/10 04:06:31;;;;;;;0.10;0.10;;;;;;;;;;5068730;28;20483;-82
2023/05/10 04:08:59;;;;;;;0.13;0.13;;;;;;;;;;5050040;28;20044;-77
2023/05/10 04:11:25;;;;;;;0.20;0.20;;;;;;;;;;5067642;28;20864;-77
2023/05/10 04:13:50;;;;;;;0.20;0.20;;;;;;;;;;5067814;28;20041;-79
2023/05/10 04:16:16;;;;;;;0.20;0.20;;;;;;;;;;5067935;28;20472;-79
2023/05/10 04:18:41;;;;;;;0.17;0.17;;;;;;;;;;5067772;28;20036;-78
2023/05/10 04:21:13;;;;;;;0.85;0.85;;;;;;;;;;5068887;28;20028;-78
2023/05/10 04:23:38;;;;;;;0.38;0.38;;;;;;;;;;5060329;28;20392;-78
2023/05/10 04:26:04;;;;;;;0.30;0.30;;;;;;;;;;5080082;28;20028;-76
2023/05/10 04:28:29;;;;;;;0.20;0.20;;;;;;;;;;5080783;28;20548;-81
2023/05/10 04:31:02;;;;;;;0.45;0.45;;;;;;;;;;5087576;28;20032;-83
2023/05/10 04:33:28;;;;;;;0.10;0.10;;;;;;;;;;5088589;28;20032;-78
2023/05/10 04:35:54;;;;;;;0.30;0.30;;;;;;;;;;5088162;28;20085;-77
2023/05/10 04:38:19;;;;;;;0.20;0.20;;;;;;;;;;5088314;28;20565;-76
2023/05/10 04:40:44;;;;;;;0.20;0.20;;;;;;;;;;5079892;28;20024;-77
2023/05/10 04:43:10;;;;;;;0.10;0.10;;;;;;;;;;5076932;28;20060;-80
2023/05/10 04:45:35;;;;;;;0.20;0.20;;;;;;;;;;5068103;28;20036;-78
2023/05/10 04:48:00;;;;;;;0.20;0.20;;;;;;;;;;5067922;28;20448;-75
2023/05/10 04:50:26;;;;;;;0.20;0.20;;;;;;;;;;5075019;28;20016;-75
2023/05/10 04:52:51;;;;;;;0.10;0.10;;;;;;;;;;5087304;28;20071;-76
2023/05/10 04:55:17;;;;;;;0.20;0.20;;;;;;;;;;5082802;28;20042;-82
2023/05/10 04:57:42;;;;;;;0.20;0.20;;;;;;;;;;5088578;28;20068;-78
2023/05/10 05:00:08;;;;;;;0.20;0.20;;;;;;;;;;5087015;28;20036;-82
2023/05/10 05:02:33;;;;;;;0.20;0.20;;;;;;;;;;5082912;28;20127;-77
2023/05/10 05:04:59;;;;;;;0.20;0.20;;;;;;;;;;5082169;28;20452;-79
2023/05/10 05:07:25;;;;;;;0.85;0.85;;;;;;;;;;5085745;28;20028;-79
2023/05/10 05:09:50;;;;;;;0.20;0.20;;;;;;;;;;5068037;28;20036;-78
2023/05/10 05:12:15;;;;;;;0.20;0.20;;;;;;;;;;5085810;28;20155;-79
2023/05/10 05:14:41;;;;;;;0.13;0.13;;;;;;;;;;5088267;28;20105;-80
2023/05/10 05:17:07;;;;;;;0.20;0.20;;;;;;;;;;5090097;28;20032;-79
2023/05/10 05:19:32;;;;;;;0.28;0.28;;;;;;;;;;5091328;28;20478;-80
2023/05/10 05:21:58;;;;;;;0.20;0.20;;;;;;;;;;5091247;28;20082;-79
2023/05/10 05:24:23;;;;;;;0.30;0.30;;;;;;;;;;5082193;28;20036;-78
2023/05/10 05:26:48;;;;;;;0.30;0.30;;;;;;;;;;5081797;28;20036;-74
2023/05/10 05:29:14;;;;;;;0.50;0.50;;;;;;;;;;5081744;28;20027;-78
2023/05/10 05:31:39;;;;;;;0.28;0.28;;;;;;;;;;5073941;28;20530;-79
2023/05/10 05:34:05;;;;;;;0.20;0.20;;;;;;;;;;5085371;28;20032;-81
2023/05/10 05:36:31;;;;;;;0.25;0.25;;;;;;;;;;5071497;28;20528;-76
2023/05/10 05:38:56;;;;;;;0.30;0.30;;;;;;;;;;5091416;28;20030;-79
2023/05/10 05:41:23;;;;;;;0.20;0.20;;;;;;;;;;5071357;28;20036;-80
2023/05/10 05:43:49;;;;;;;0.22;0.22;;;;;;;;;;5073236;28;20186;-80
2023/05/10 05:46:14;;;;;;;0.20;0.20;;;;;;;;;;5091048;28;20119;-77
2023/05/10 05:48:40;;;;;;;0.20;0.20;;;;;;;;;;5091456;28;20463;-76
2023/05/10 05:51:05;;;;;;;0.20;0.20;;;;;;;;;;5091538;28;20042;-76
2023/05/10 05:53:31;;;;;;;0.25;0.25;;;;;;;;;;5091041;28;20094;-77
2023/05/10 05:55:57;;;;;;;0.30;0.30;;;;;;;;;;5089254;28;20032;-76
2023/05/10 05:58:23;;;;;;;0.20;0.20;;;;;;;;;;5072061;28;20024;-76
2023/05/10 06:00:48;;;;;;;0.25;0.25;;;;;;;;;;5086969;28;20047;-75
2023/05/10 06:03:14;;;;;;;0.20;0.20;;;;;;;;;;5090821;28;20032;-75
2023/05/10 06:05:39;;;;;;;0.20;0.20;;;;;;;;;;5089566;28;20398;-75
2023/05/10 06:08:05;;;;;;;0.30;0.30;;;;;;;;;;5090529;28;20452;-75
2023/05/10 06:10:30;;;;;;;0.20;0.20;;;;;;;;;;5089281;28;20040;-75
2023/05/10 06:12:55;;;;;;;0.20;0.20;;;;;;;;;;5090906;28;20089;-76
2023/05/10 06:15:21;;;;;;;0.20;0.20;;;;;;;;;;5090650;28;20032;-75
2023/05/10 06:17:48;;;;;;;0.68;0.68;;;;;;;;;;5089181;28;20380;-75
2023/05/10 06:20:14;;;;;;;0.20;0.20;;;;;;;;;;5088827;28;20028;-75
2023/05/10 06:22:41;;;;;;;2.47;1.80;;;;;;;;;;5087940;28;20028;-76
2023/05/10 06:25:08;;;;;;;0.30;0.30;;;;;;;;;;5088544;28;20028;-81
2023/05/10 06:27:34;;;;;;;0.20;0.20;;;;;;;;;;5087626;28;20020;-84
2023/05/10 06:30:02;;;;;;;0.10;0.10;;;;;;;;;;5089793;28;20027;-83
2023/05/10 06:32:28;;;;;;;0.20;0.20;;;;;;;;;;5068958;28;20047;-78
2023/05/10 06:34:53;;;;;;;0.20;0.20;;;;;;;;;;5071672;28;20097;-84
2023/05/10 06:37:19;;;;;;;0.73;0.73;;;;;;;;;;5071021;28;20044;-79
2023/05/10 06:39:44;;;;;;;0.20;0.20;;;;;;;;;;5088574;28;20026;-81
2023/05/10 06:42:10;;;;;;;0.20;0.20;;;;;;;;;;5061953;28;20032;-81
2023/05/10 06:44:35;;;;;;;0.20;0.20;;;;;;;;;;5069994;28;20041;-84
2023/05/10 06:47:00;;;;;;;0.20;0.20;;;;;;;;;;5070300;28;20044;-84
2023/05/10 06:49:26;;;;;;;0.13;0.13;;;;;;;;;;5087656;28;20055;-78
2023/05/10 06:51:51;;;;;;;0.20;0.20;;;;;;;;;;5086243;28;20044;-80
2023/05/10 06:54:17;;;;;;;0.20;0.20;;;;;;;;;;5089655;28;20023;-78
2023/05/10 06:56:42;;;;;;;0.13;0.13;;;;;;;;;;5089797;28;20107;-80
2023/05/10 06:59:08;;;;;;;0.40;0.40;;;;;;;;;;5088198;28;20537;-80
2023/05/10 07:01:33;;;;;;;0.20;0.20;;;;;;;;;;5070128;28;20038;-77
2023/05/10 07:03:59;;;;;;;0.17;0.17;;;;;;;;;;5087946;28;20092;-80
2023/05/10 07:06:24;;;;;;;0.17;0.17;;;;;;;;;;5068185;28;20460;-79
2023/05/10 07:08:50;;;;;;;0.20;0.20;;;;;;;;;;5085648;28;20044;-78
2023/05/10 07:11:15;;;;;;;0.20;0.20;;;;;;;;;;5082456;28;20029;-77
2023/05/10 07:13:46;;;;;;;0.20;0.20;;;;;;;;;;5067832;28;20037;-80
2023/05/10 07:16:11;;;;;;;0.17;0.17;;;;;;;;;;5051206;28;20105;-80
2023/05/10 07:18:37;;;;;;;1.05;1.05;;;;;;;;;;5076499;28;20024;-78
2023/05/10 07:21:02;;;;;;;0.30;0.30;;;;;;;;;;5083170;28;20379;-78
2023/05/10 07:23:28;;;;;;;0.20;0.20;;;;;;;;;;5078807;28;20488;-78
2023/05/10 07:25:54;;;;;;;0.20;0.20;;;;;;;;;;5078593;28;20226;-79
2023/05/10 07:28:20;;;;;;;0.20;0.20;;;;;;;;;;5077304;28;20024;-79
2023/05/10 07:30:46;;;;;;;0.20;0.20;;;;;;;;;;5062879;28;20042;-79
2023/05/10 07:33:12;;;;;;;0.20;0.20;;;;;;;;;;5088569;28;20380;-78
2023/05/10 07:35:37;;;;;;;0.30;0.30;;;;;;;;;;5084566;28;20108;-76
2023/05/10 07:38:03;;;;;;;0.20;0.20;;;;;;;;;;5088478;28;20028;-79
2023/05/10 07:40:29;;;;;;;0.20;0.20;;;;;;;;;;5087517;28;20032;-78
2023/05/10 07:42:54;;;;;;;0.20;0.20;;;;;;;;;;5069276;28;20131;-78
2023/05/10 07:45:20;;;;;;;0.20;0.20;;;;;;;;;;5083693;28;20028;-77
2023/05/10 07:47:45;;;;;;;0.30;0.30;;;;;;;;;;5060892;28;20047;-78
2023/05/10 07:50:10;;;;;;;0.28;0.28;;;;;;;;;;5078986;28;20398;-78
2023/05/10 07:52:36;;;;;;;1.02;0.98;;;;;;;;;;5073629;28;20036;-70
2023/05/10 07:55:02;;;;;;;0.20;0.20;;;;;;;;;;5060170;28;20604;-70
2023/05/10 07:57:27;;;;;;;0.20;0.20;;;;;;;;;;5064429;28;20090;-68
2023/05/10 07:59:52;;;;;;;0.20;0.20;;;;;;;;;;5085358;28;20022;-69
2023/05/10 08:02:18;;;;;;;0.20;0.20;;;;;;;;;;5086654;28;20537;-68
2023/05/10 08:04:43;;;;;;;0.20;0.20;;;;;;;;;;5086760;28;20032;-69
2023/05/10 08:07:09;;;;;;;0.38;0.38;;;;;;;;;;5088386;28;20353;-70
2023/05/10 08:09:34;;;;;;;0.20;0.20;;;;;;;;;;5088638;28;20068;-71
2023/05/10 08:12:00;;;;;;;0.28;0.28;;;;;;;;;;5086829;28;20044;-69
2023/05/10 08:14:27;;;;;;;0.20;0.20;;;;;;;;;;5068446;28;20642;-69
2023/05/10 08:16:52;;;;;;;0.20;0.20;;;;;;;;;;5086155;28;20434;-69
2023/05/10 08:19:19;;;;;;;0.20;0.20;;;;;;;;;;5086242;28;20035;-69
2023/05/10 08:21:45;;;;;;;0.20;0.20;;;;;;;;;;5086652;28;20295;-68
2023/05/10 08:24:10;;;;;;;0.30;0.30;;;;;;;;;;5068284;28;20475;-69
2023/05/10 08:26:36;;;;;;;0.20;0.20;;;;;;;;;;5086733;28;20039;-68
2023/05/10 08:29:01;;;;;;;0.20;0.20;;;;;;;;;;5088277;28;20043;-68
2023/05/10 08:31:27;;;;;;;0.20;0.20;;;;;;;;;;5088552;28;20040;-68
2023/05/10 08:33:52;;;;;;;0.20;0.20;;;;;;;;;;5069103;28;20047;-69
2023/05/10 08:36:21;;;;;;;0.20;0.20;;;;;;;;;;5087044;28;20047;-66
2023/05/10 08:38:48;;;;;;;0.40;0.40;;;;;;;;;;5069150;28;20084;-67
2023/05/10 08:41:14;;;;;;;0.20;0.20;;;;;;;;;;5088160;28;20040;-67
2023/05/10 08:43:41;;;;;;;0.35;0.35;;;;;;;;;;5069708;28;20040;-67
2023/05/10 08:46:07;;;;;;;1.77;0.95;;;;;;;;;;5087841;28;20040;-68
2023/05/10 08:48:34;;;;;;;0.20;0.20;;;;;;;;;;5078644;28;20118;-68
2023/05/10 08:51:00;;;;;;;0.63;0.55;;;;;;;;;;5103967;28;20032;-70
2023/05/10 08:53:27;;;;;;;0.20;0.20;;;;;;;;;;5091458;28;20036;-68
2023/05/10 08:55:52;;;;;;;0.40;0.40;;;;;;;;;;5090850;28;20060;-67
2023/05/10 08:58:19;;;;;;;0.20;0.20;;;;;;;;;;5091604;28;20387;-68
2023/05/10 09:00:45;;;;;;;0.20;0.20;;;;;;;;;;5091062;28;20046;-68
2023/05/10 09:03:11;;;;;;;0.20;0.20;;;;;;;;;;5090733;28;20551;-69
2023/05/10 09:05:36;;;;;;;0.60;0.50;;;;;;;;;;5091556;28;20136;-70
2023/05/10 09:08:02;;;;;;;0.20;0.20;;;;;;;;;;5091048;28;20071;-68
2023/05/10 09:10:28;;;;;;;0.20;0.20;;;;;;;;;;5090942;28;20039;-69
2023/05/10 09:12:55;;;;;;;0.17;0.17;;;;;;;;;;5091257;28;20071;-68
2023/05/10 09:15:21;;;;;;;0.20;0.20;;;;;;;;;;5106634;28;20036;-69
2023/05/10 09:17:47;;;;;;;0.20;0.20;;;;;;;;;;5090651;28;20927;-69
2023/05/10 09:20:12;;;;;;;0.30;0.30;;;;;;;;;;5091277;28;20487;-68
2023/05/10 09:22:38;;;;;;;0.32;0.28;;;;;;;;;;5091054;28;20463;-68
2023/05/10 09:25:16;;;;;;;0.20;0.20;;;;;;;;;;5090971;28;20343;-70
2023/05/10 09:27:44;;;;;;;0.30;0.30;;;;;;;;;;5090871;28;20055;-71
2023/05/10 09:30:10;;;;;;;0.20;0.20;;;;;;;;;;5090852;28;20047;-69
2023/05/10 09:32:39;;;;;;;0.30;0.30;;;;;;;;;;5090433;28;20036;-69
2023/05/10 09:35:08;;;;;;;0.20;0.20;;;;;;;;;;5090664;28;20035;-69
2023/05/10 09:37:33;;;;;;;0.20;0.20;;;;;;;;;;5090729;28;20462;-69
2023/05/10 09:39:58;;;;;;;0.28;0.28;;;;;;;;;;5090284;28;20095;-69
2023/05/10 09:42:24;;;;;;;0.30;0.30;;;;;;;;;;5090862;28;20556;-69
2023/05/10 09:44:49;;;;;;;0.20;0.20;;;;;;;;;;5089296;28;20031;-69
2023/05/10 09:47:21;;;;;;;0.25;0.25;;;;;;;;;;5090450;28;20024;-69
2023/05/10 09:49:52;;;;;;;0.20;0.20;;;;;;;;;;5090389;28;20031;-70
2023/05/10 09:52:18;;;;;;;0.20;0.20;;;;;;;;;;5072460;28;20525;-69
2023/05/10 09:54:53;;;;;;;0.20;0.20;;;;;;;;;;5083004;28;20024;-69
2023/05/10 09:57:22;;;;;;;0.20;0.20;;;;;;;;;;5079326;28;20036;-69
2023/05/10 09:59:48;;;;;;;0.20;0.20;;;;;;;;;;5088042;28;20661;-69
2023/05/10 10:02:13;;;;;;;0.30;0.30;;;;;;;;;;5090484;28;20127;-70
2023/05/10 10:04:39;;;;;;;0.20;0.20;;;;;;;;;;5089403;28;20085;-69
2023/05/10 10:07:05;;;;;;;0.30;0.30;;;;;;;;;;5089318;28;20070;-70
2023/05/10 10:09:31;;;;;;;1.48;1.38;;;;;;;;;;5089450;28;20122;-68
2023/05/10 10:11:56;;;;;;;0.20;0.20;;;;;;;;;;5073183;28;20479;-69
2023/05/10 10:14:23;;;;;;;0.20;0.20;;;;;;;;;;5068350;28;20044;-69
2023/05/10 10:16:49;;;;;;;0.20;0.20;;;;;;;;;;5068203;28;20028;-69
2023/05/10 10:19:15;;;;;;;0.20;0.20;;;;;;;;;;5079028;28;20450;-69
2023/05/10 10:21:40;;;;;;;0.20;0.20;;;;;;;;;;5089281;28;20032;-68
2023/05/10 10:24:06;;;;;;;0.20;0.20;;;;;;;;;;5088593;28;20438;-69
2023/05/10 10:26:36;;;;;;;0.20;0.20;;;;;;;;;;5070912;28;20047;-69
2023/05/10 10:29:04;;;;;;;0.20;0.20;;;;;;;;;;5090088;28;20047;-70
2023/05/10 10:31:41;;;;;;;0.40;0.40;;;;;;;;;;5088878;28;20336;-69
2023/05/10 10:34:08;;;;;;;0.35;0.35;;;;;;;;;;5088804;28;20047;-69
2023/05/10 10:36:42;;;;;;;0.20;0.20;;;;;;;;;;5089948;28;20049;-70
2023/05/10 10:39:10;;;;;;;0.20;0.20;;;;;;;;;;5089772;28;21080;-70
2023/05/10 10:41:37;;;;;;;0.30;0.30;;;;;;;;;;5090068;28;20547;-69
2023/05/10 10:44:25;;;;;;;0.20;0.20;;;;;;;;;;5089251;28;20511;-69
2023/05/10 10:47:22;;;;;;;0.43;0.40;;;;;;;;;;5079091;28;20044;-69
2023/05/10 10:49:57;;;;;;;0.30;0.30;;;;;;;;;;5051739;28;20316;-70
2023/05/10 10:52:33;;;;;;;1.15;0.80;;;;;;;;;;5069351;28;20036;-71
2023/05/10 10:55:03;;;;;;;0.75;0.55;;;;;;;;;;5083699;28;20371;-71
2023/05/10 10:57:31;;;;;;;0.20;0.20;;;;;;;;;;5089936;28;20036;-70
2023/05/10 11:00:15;;;;;;;0.20;0.20;;;;;;;;;;5089390;28;20036;-69
2023/05/10 11:02:41;;;;;;;0.30;0.30;;;;;;;;;;5089367;28;20036;-69
2023/05/10 11:05:26;;;;;;;0.20;0.20;;;;;;;;;;5089127;28;20039;-68
2023/05/10 11:07:52;;;;;;;0.20;0.20;;;;;;;;;;5088909;28;20035;-70
2023/05/10 11:10:24;;;;;;;0.20;0.20;;;;;;;;;;5089284;28;20086;-69
2023/05/10 11:13:03;;;;;;;0.40;0.40;;;;;;;;;;5089224;28;20047;-69
2023/05/10 11:15:36;;;;;;;0.30;0.30;;;;;;;;;;5088987;28;20032;-70
2023/05/10 11:18:24;;;;;;;0.40;0.30;;;;;;;;;;5053713;28;20047;-69
2023/05/10 11:21:00;;;;;;;0.20;0.20;;;;;;;;;;5088993;28;20356;-69
2023/05/10 11:23:32;;;;;;;0.40;0.40;;;;;;;;;;5089725;28;20495;-69
2023/05/10 11:25:58;;;;;;;0.20;0.20;;;;;;;;;;5088983;28;20031;-70
2023/05/10 11:28:25;;;;;;;0.25;0.25;;;;;;;;;;5088491;28;20402;-72
2023/05/10 11:30:51;;;;;;;0.20;0.20;;;;;;;;;;5089158;28;20047;-69
2023/05/10 11:33:19;;;;;;;0.22;0.22;;;;;;;;;;5088557;28;20043;-69
2023/05/10 11:35:44;;;;;;;0.85;0.50;;;;;;;;;;5088756;28;20032;-69
2023/05/10 11:38:11;;;;;;;0.80;0.50;;;;;;;;;;5088726;28;20400;-69
2023/05/10 11:40:37;;;;;;;0.20;0.20;;;;;;;;;;5088902;28;20024;-69
2023/05/10 11:43:03;;;;;;;0.20;0.20;;;;;;;;;;5088745;28;20081;-69
2023/05/10 11:45:29;;;;;;;0.40;0.40;;;;;;;;;;5088568;28;20426;-69
2023/05/10 11:47:58;;;;;;;0.55;0.30;;;;;;;;;;5088268;28;20056;-70
2023/05/10 11:50:23;;;;;;;1.93;0.20;;;;;;;;;;5089069;28;20035;-68
2023/05/10 11:52:56;;;;;;;0.20;0.20;;;;;;;;;;5088484;28;20339;-69
2023/05/10 11:55:21;;;;;;;0.20;0.20;;;;;;;;;;5087189;28;20371;-69
2023/05/10 11:57:47;;;;;;;0.17;0.17;;;;;;;;;;5087951;28;20498;-69
2023/05/10 12:00:13;;;;;;;0.20;0.20;;;;;;;;;;5088421;28;20032;-70
2023/05/10 12:02:41;;;;;;;0.20;0.20;;;;;;;;;;5088648;28;20063;-72
2023/05/10 12:05:06;;;;;;;0.40;0.40;;;;;;;;;;5088524;28;20462;-70
2023/05/10 12:07:32;;;;;;;0.20;0.20;;;;;;;;;;5089022;28;20386;-68
2023/05/10 12:10:08;;;;;;;0.20;0.20;;;;;;;;;;5089031;28;20035;-69
2023/05/10 12:12:47;;;;;;;0.20;0.20;;;;;;;;;;5070005;28;20040;-70
2023/05/10 12:15:23;;;;;;;0.20;0.20;;;;;;;;;;5088471;28;20032;-69
2023/05/10 12:17:49;;;;;;;0.20;0.20;;;;;;;;;;5087942;28;20126;-69
2023/05/10 12:20:16;;;;;;;0.30;0.30;;;;;;;;;;5088405;28;20032;-69
2023/05/10 12:22:49;;;;;;;0.20;0.20;;;;;;;;;;5087828;28;20526;-69
2023/05/10 12:25:14;;;;;;;0.20;0.20;;;;;;;;;;5088452;28;20028;-68
2023/05/10 12:27:40;;;;;;;0.20;0.20;;;;;;;;;;5091035;28;20110;-70
2023/05/10 12:30:06;;;;;;;0.20;0.20;;;;;;;;;;5091697;28;20043;-69
2023/05/10 12:32:41;;;;;;;0.20;0.20;;;;;;;;;;5091985;28;20085;-70
2023/05/10 12:35:08;;;;;;;0.20;0.20;;;;;;;;;;5091435;28;20040;-71
2023/05/10 12:37:35;;;;;;;0.20;0.20;;;;;;;;;;5073453;28;20449;-69
2023/05/10 12:40:01;;;;;;;0.40;0.40;;;;;;;;;;5091120;28;20054;-69
2023/05/10 12:42:26;;;;;;;0.20;0.20;;;;;;;;;;5091576;28;20043;-69
2023/05/10 12:44:56;;;;;;;0.40;0.40;;;;;;;;;;5091572;28;20460;-68
2023/05/10 12:47:21;;;;;;;0.30;0.30;;;;;;;;;;5091423;28;20028;-69
2023/05/10 12:49:47;;;;;;;0.30;0.30;;;;;;;;;;5091761;28;20379;-72
2023/05/10 12:52:12;;;;;;;0.20;0.20;;;;;;;;;;5091567;28;20043;-69
2023/05/10 12:54:38;;;;;;;0.30;0.30;;;;;;;;;;5073582;28;20105;-68
2023/05/10 12:57:03;;;;;;;0.63;0.40;;;;;;;;;;5091457;28;20118;-68
2023/05/10 12:59:29;;;;;;;0.55;0.43;;;;;;;;;;5091439;28;20119;-71
2023/05/10 13:01:54;;;;;;;0.22;0.22;;;;;;;;;;5090959;28;20036;-69
2023/05/10 13:04:20;;;;;;;0.60;0.60;;;;;;;;;;5091155;28;20039;-68
2023/05/10 13:06:45;;;;;;;0.25;0.25;;;;;;;;;;5072868;28;20081;-70
2023/05/10 13:09:11;;;;;;;0.20;0.20;;;;;;;;;;5072810;28;20089;-70
2023/05/10 13:11:36;;;;;;;0.30;0.30;;;;;;;;;;5090927;28;20024;-69
2023/05/10 13:14:03;;;;;;;0.20;0.20;;;;;;;;;;5090838;28;20040;-70
2023/05/10 13:16:28;;;;;;;0.30;0.30;;;;;;;;;;5081183;28;20033;-69
2023/05/10 13:18:53;;;;;;;0.20;0.20;;;;;;;;;;5084815;28;20024;-70
2023/05/10 13:21:19;;;;;;;0.20;0.20;;;;;;;;;;5064413;28;20107;-69
2023/05/10 13:23:44;;;;;;;0.82;0.40;;;;;;;;;;5079814;28;20467;-70
2023/05/10 13:26:11;;;;;;;1.00;0.47;;;;;;;;;;5077126;28;20082;-69
2023/05/10 13:28:38;;;;;;;0.30;0.30;;;;;;;;;;5077372;28;20035;-67
2023/05/10 13:31:04;;;;;;;0.30;0.30;;;;;;;;;;5082061;28;20032;-67
2023/05/10 13:33:30;;;;;;;0.22;0.22;;;;;;;;;;5075495;28;20036;-69
2023/05/10 13:35:55;;;;;;;0.20;0.20;;;;;;;;;;5077631;28;20024;-69
2023/05/10 13:38:21;;;;;;;0.30;0.30;;;;;;;;;;5076022;28;20468;-70
2023/05/10 13:40:46;;;;;;;0.30;0.30;;;;;;;;;;5084287;28;20476;-69
2023/05/10 13:43:11;;;;;;;0.40;0.35;;;;;;;;;;5089274;28;20048;-70
2023/05/10 13:45:37;;;;;;;1.27;0.50;;;;;;;;;;5089164;28;20064;-69
2023/05/10 13:48:03;;;;;;;0.45;0.43;;;;;;;;;;5067259;28;20036;-69
2023/05/10 13:50:28;;;;;;;0.22;0.22;;;;;;;;;;5055384;28;20035;-69
2023/05/10 13:52:53;;;;;;;0.30;0.30;;;;;;;;;;5086383;28;20063;-70
2023/05/10 13:55:19;;;;;;;0.80;0.30;;;;;;;;;;5061024;28;20028;-69
2023/05/10 13:57:45;;;;;;;0.30;0.30;;;;;;;;;;5070263;28;20028;-69
2023/05/10 14:00:13;;;;;;;0.30;0.30;;;;;;;;;;5070392;28;20070;-69
2023/05/10 14:02:39;;;;;;;0.47;0.47;;;;;;;;;;5089020;28;20112;-69
2023/05/10 14:05:04;;;;;;;0.93;0.50;;;;;;;;;;5090247;28;20031;-69
2023/05/10 14:07:30;;;;;;;0.90;0.55;;;;;;;;;;5090642;28;20040;-69
2023/05/10 14:09:56;;;;;;;13.85;1.75;;;;;;;;;;5089158;28;20088;-68
2023/05/10 14:12:21;;;;;;;1.58;0.63;;;;;;;;;;5090389;28;20070;-68
2023/05/10 14:14:47;;;;;;;0.20;0.20;;;;;;;;;;5090086;28;20032;-70
2023/05/10 14:17:12;;;;;;;3.63;1.42;;;;;;;;;;5072638;28;20093;-69
2023/05/10 14:19:38;;;;;;;0.80;0.52;;;;;;;;;;5090142;28;20024;-67
2023/05/10 14:22:03;;;;;;;0.45;0.40;;;;;;;;;;5089934;28;20016;-69
2023/05/10 14:24:29;;;;;;;0.20;0.20;;;;;;;;;;5089984;28;20059;-68
2023/05/10 14:26:54;;;;;;;0.57;0.47;;;;;;;;;;5090762;28;20032;-68
2023/05/10 14:29:20;;;;;;;0.30;0.30;;;;;;;;;;5089437;28;20046;-69
2023/05/10 14:31:45;;;;;;;1.30;0.60;;;;;;;;;;5089629;28;20059;-71
2023/05/10 14:34:11;;;;;;;0.43;0.43;;;;;;;;;;5072219;28;20047;-68
2023/05/10 14:36:36;;;;;;;0.32;0.32;;;;;;;;;;5090245;28;20111;-68
2023/05/10 14:39:02;;;;;;;0.32;0.32;;;;;;;;;;5090402;28;20101;-68
2023/05/10 14:41:28;;;;;;;2.22;0.77;;;;;;;;;;5071749;28;20028;-69
2023/05/10 14:43:53;;;;;;;0.50;0.50;;;;;;;;;;5090001;28;20032;-68